Time;durP1;ratioP1;P1;durP2;ratioP2;P2;SDS_P1;SDS_P2;PMS_P1;PMS_P2;Temp;Humidity;BMP_temperature;BMP_pressure;BME280_temperature;BME280_humidity;BME280_pressure;Samples;Min_cycle;Max_cycle;Signal;HPM_P1;HPM_P2
2023/09/11 00:01:19;;;;;;;;;;;20.80;55.00;;;16.99;100.00;95575.31;5023743;28;19944;-46
2023/09/11 00:03:47;;;;;;;;;;;20.80;55.10;;;16.96;100.00;95578.63;5031243;28;19921;-47
2023/09/11 00:06:13;;;;;;;;;;;20.80;55.20;;;16.95;100.00;95575.09;5024428;28;19913;-46
2023/09/11 00:08:39;;;;;;;;;;;20.80;55.30;;;16.96;100.00;95562.47;5027412;28;20432;-46
2023/09/11 00:11:04;;;;;;;;;;;20.70;55.30;;;16.95;100.00;95568.94;5031034;28;20010;-46
2023/09/11 00:13:31;;;;;;;;;;;20.70;55.40;;;16.93;100.00;95565.78;5029138;28;19912;-46
2023/09/11 00:15:57;;;;;;;;;;;20.80;55.50;;;16.86;100.00;95567.00;5022312;28;20355;-46
2023/09/11 00:18:25;;;;;;;;;;;20.70;55.60;;;16.85;100.00;95570.75;5026014;28;19924;-46
2023/09/11 00:20:52;;;;;;;;;;;20.70;55.60;;;16.77;100.00;95559.97;5031113;28;19952;-46
2023/09/11 00:23:17;;;;;;;;;;;20.70;55.70;;;16.80;100.00;95564.72;5031217;28;19916;-46
2023/09/11 00:25:43;;;;;;;;;;;20.70;55.70;;;16.77;100.00;95563.44;5013866;28;19913;-47
2023/09/11 00:28:09;;;;;;;;;;;20.60;55.70;;;16.74;100.00;95560.53;5026354;28;19989;-47
2023/09/11 00:30:37;;;;;;;;;;;20.60;55.90;;;16.66;100.00;95570.91;5021878;28;19909;-52
2023/09/11 00:33:03;;;;;;;;;;;20.60;55.90;;;16.63;100.00;95562.66;5027506;28;19952;-46
2023/09/11 00:35:29;;;;;;;;;;;20.60;55.90;;;16.67;100.00;95563.63;5013659;28;19915;-48
2023/09/11 00:37:55;;;;;;;;;;;20.50;56.00;;;16.64;100.00;95561.56;5027583;28;19909;-47
2023/09/11 00:40:20;;;;;;;;;;;20.50;56.00;;;16.62;100.00;95561.06;5029455;28;19908;-46
2023/09/11 00:42:46;;;;;;;;;;;20.50;56.10;;;16.54;100.00;95559.09;5012927;28;19913;-47
2023/09/11 00:45:12;;;;;;;;;;;20.50;56.20;;;16.52;100.00;95558.59;5029847;28;20364;-46
2023/09/11 00:47:42;;;;;;;;;;;20.50;56.30;;;16.54;100.00;95556.38;5029628;28;19913;-46
2023/09/11 00:55:17;;;;;;;;;;;20.40;56.50;;;16.42;100.00;95546.97;5176237;23;19932;-49
2023/09/11 00:57:43;;;;;;;;;;;20.30;56.50;;;16.42;100.00;95548.84;4974012;28;19968;-53
2023/09/11 01:00:10;;;;;;;;;;;20.30;56.50;;;16.39;100.00;95549.47;4982852;28;19912;-51
2023/09/11 01:02:36;;;;;;;;;;;20.30;56.60;;;16.39;100.00;95554.84;4997781;28;19917;-50
2023/09/11 01:05:07;;;;;;;;;;;20.20;56.60;;;16.33;100.00;95543.41;4999925;28;20439;-44
2023/09/11 01:07:37;;;;;;;;;;;20.30;56.80;;;16.30;100.00;95545.91;4974238;28;19963;-46
2023/09/11 01:10:06;;;;;;;;;;;20.20;56.70;;;16.27;100.00;95550.00;5003196;28;19909;-45
2023/09/11 01:12:37;;;;;;;;;;;20.20;56.80;;;16.23;100.00;95548.97;4996382;28;19932;-50
2023/09/11 01:15:06;;;;;;;;;;;20.20;56.90;;;16.22;100.00;95544.72;5009050;28;19912;-47
2023/09/11 01:17:50;;;;;;;;;;;20.10;56.90;;;16.16;100.00;95540.53;4996462;28;20342;-48
2023/09/11 01:20:44;;;;;;;;;;;20.10;57.00;;;16.18;100.00;95538.34;4990019;28;20430;-45
2023/09/11 01:23:52;;;;;;;;;;;20.10;57.20;;;16.17;100.00;95536.78;5010892;28;19916;-46
2023/09/11 01:26:50;;;;;;;;;;;20.10;57.20;;;16.15;100.00;95534.38;4991806;28;19990;-47
2023/09/11 01:29:26;;;;;;;;;;;20.10;57.40;;;16.16;100.00;95543.22;5010698;28;19913;-47
2023/09/11 01:31:54;;;;;;;;;;;20.00;57.40;;;16.17;100.00;95537.56;5007598;28;20005;-45
2023/09/11 01:34:20;;;;;;;;;;;20.00;57.50;;;16.19;100.00;95537.25;4991929;28;19940;-46
2023/09/11 01:36:46;;;;;;;;;;;20.00;57.50;;;16.18;100.00;95533.78;5004060;28;19968;-46
2023/09/11 01:39:12;;;;;;;;;;;20.00;57.60;;;16.17;100.00;95537.56;5013113;28;19912;-48
2023/09/11 01:41:48;;;;;;;;;;;20.00;57.60;;;16.16;100.00;95524.41;4994933;28;19935;-46
2023/09/11 01:44:33;;;;;;;;;;;20.00;57.60;;;16.11;100.00;95532.59;5006354;28;19917;-48
2023/09/11 01:47:01;;;;;;;;;;;20.00;57.70;;;16.12;100.00;95531.50;4971748;28;20019;-49
2023/09/11 01:49:29;;;;;;;;;;;20.00;57.70;;;16.07;100.00;95532.38;4972283;28;19917;-50
2023/09/11 01:51:56;;;;;;;;;;;20.00;57.80;;;16.03;100.00;95530.59;4994931;28;20004;-51
2023/09/11 01:54:25;;;;;;;;;;;19.90;57.90;;;16.00;100.00;95532.00;4984982;28;20073;-50
2023/09/11 01:56:51;;;;;;;;;;;19.90;57.80;;;15.94;100.00;95530.50;4977451;28;19932;-53
2023/09/11 01:59:17;;;;;;;;;;;19.90;57.90;;;15.92;100.00;95533.50;4994934;28;19910;-53
2023/09/11 02:01:45;;;;;;;;;;;19.80;57.80;;;15.91;100.00;95529.22;4994414;28;20292;-52
2023/09/11 02:04:11;;;;;;;;;;;19.90;57.90;;;15.88;100.00;95524.44;4976886;28;20007;-51
2023/09/11 02:06:37;;;;;;;;;;;19.80;58.00;;;15.87;100.00;95530.91;4993965;28;19939;-45
2023/09/11 02:09:04;;;;;;;;;;;19.80;58.00;;;15.85;100.00;95525.03;5010407;28;19916;-45
2023/09/11 02:11:30;;;;;;;;;;;19.80;58.10;;;15.81;100.00;95532.09;4996833;28;20291;-50
2023/09/11 02:13:55;;;;;;;;;;;19.80;58.20;;;15.81;100.00;95534.00;5010144;28;19913;-47
2023/09/11 02:16:21;;;;;;;;;;;19.80;58.30;;;15.84;100.00;95538.78;5010701;28;20450;-50
2023/09/11 02:18:47;;;;;;;;;;;19.70;58.30;;;15.87;100.00;95541.66;4986149;28;19916;-47
2023/09/11 02:21:12;;;;;;;;;;;19.80;58.40;;;15.79;100.00;95538.88;5012769;28;19959;-46
2023/09/11 02:23:38;;;;;;;;;;;19.70;58.40;;;15.77;100.00;95528.44;5008363;28;19910;-52
2023/09/11 02:26:04;;;;;;;;;;;19.70;58.40;;;15.76;100.00;95531.41;5012445;28;19913;-49
2023/09/11 02:28:31;;;;;;;;;;;19.70;58.50;;;15.73;100.00;95538.16;5014011;28;19952;-44
2023/09/11 02:30:57;;;;;;;;;;;19.70;58.60;;;15.71;100.00;95535.00;5008183;28;20263;-48
2023/09/11 02:33:23;;;;;;;;;;;19.70;58.70;;;15.65;100.00;95539.63;5014016;28;19909;-51
2023/09/11 02:35:57;;;;;;;;;;;19.60;58.70;;;15.65;100.00;95534.25;5010940;28;20550;-50
2023/09/11 02:38:23;;;;;;;;;;;19.60;58.70;;;15.67;100.00;95531.31;5007450;28;19909;-47
2023/09/11 02:40:49;;;;;;;;;;;19.60;58.70;;;15.67;100.00;95534.00;4988071;28;19909;-47
2023/09/11 02:43:16;;;;;;;;;;;19.60;58.70;;;15.64;100.00;95523.84;5012401;28;19935;-49
2023/09/11 02:45:45;;;;;;;;;;;19.60;58.70;;;15.61;100.00;95535.97;5013006;28;19959;-45
2023/09/11 02:48:12;;;;;;;;;;;19.50;58.80;;;15.53;100.00;95530.47;5001654;28;20402;-45
2023/09/11 02:50:38;;;;;;;;;;;19.50;58.80;;;15.52;100.00;95531.56;5009520;28;19913;-45
2023/09/11 02:53:09;;;;;;;;;;;19.50;59.00;;;15.51;100.00;95541.50;5006993;28;20377;-48
2023/09/11 02:55:38;;;;;;;;;;;19.50;59.00;;;15.48;100.00;95526.81;5003375;28;20036;-51
2023/09/11 02:58:05;;;;;;;;;;;19.50;59.00;;;15.44;100.00;95528.47;5000050;28;20024;-47
2023/09/11 03:00:36;;;;;;;;;;;19.40;59.00;;;15.41;100.00;95534.41;5005084;28;19917;-45
2023/09/11 03:03:04;;;;;;;;;;;19.40;59.00;;;15.39;100.00;95523.22;5008507;28;19913;-46
2023/09/11 03:05:33;;;;;;;;;;;19.40;59.10;;;15.39;100.00;95527.78;5012357;28;19917;-45
2023/09/11 03:08:01;;;;;;;;;;;19.30;59.10;;;15.38;100.00;95532.31;5007568;28;19916;-48
2023/09/11 03:10:28;;;;;;;;;;;19.40;59.20;;;15.35;100.00;95526.75;5013187;28;20035;-45
2023/09/11 03:12:54;;;;;;;;;;;19.30;59.30;;;15.34;100.00;95538.59;5003404;28;20408;-45
2023/09/11 03:15:29;;;;;;;;;;;19.30;59.40;;;15.33;100.00;95531.66;5012919;28;20004;-49
2023/09/11 03:17:55;;;;;;;;;;;19.30;59.30;;;15.30;100.00;95530.34;4994974;28;19920;-48
2023/09/11 03:20:21;;;;;;;;;;;19.30;59.40;;;15.31;100.00;95531.94;5006740;28;20357;-47
2023/09/11 03:22:47;;;;;;;;;;;19.30;59.40;;;15.30;100.00;95533.03;5004869;28;19909;-47
2023/09/11 03:25:13;;;;;;;;;;;19.30;59.50;;;15.27;100.00;95541.66;4990690;28;19913;-45
2023/09/11 03:27:38;;;;;;;;;;;19.20;59.50;;;15.20;100.00;95534.00;5012758;28;19916;-45
2023/09/11 03:30:05;;;;;;;;;;;19.20;59.60;;;15.24;100.00;95534.22;5007209;28;19998;-46
2023/09/11 03:32:31;;;;;;;;;;;19.20;59.60;;;15.22;100.00;95539.84;5004752;28;20300;-47
2023/09/11 03:34:56;;;;;;;;;;;19.20;59.60;;;15.22;100.00;95531.81;5012270;28;19963;-44
2023/09/11 03:37:24;;;;;;;;;;;19.20;59.70;;;15.22;100.00;95533.69;5008222;28;19909;-46
2023/09/11 03:39:49;;;;;;;;;;;19.20;59.80;;;15.21;100.00;95526.75;4995749;28;19921;-46
2023/09/11 03:42:15;;;;;;;;;;;19.20;59.80;;;15.21;100.00;95527.53;5005955;28;19936;-44
2023/09/11 03:44:41;;;;;;;;;;;19.20;59.80;;;15.20;100.00;95527.84;5010009;28;19917;-45
2023/09/11 03:47:06;;;;;;;;;;;19.20;59.90;;;15.20;100.00;95528.63;4997058;28;20269;-45
2023/09/11 03:49:32;;;;;;;;;;;19.20;59.90;;;15.20;100.00;95535.91;4996451;28;19909;-46
2023/09/11 03:51:58;;;;;;;;;;;19.20;60.00;;;15.19;100.00;95523.56;5012726;28;19909;-45
2023/09/11 03:54:24;;;;;;;;;;;19.10;60.00;;;15.16;100.00;95526.81;5008747;28;19951;-47
2023/09/11 03:56:50;;;;;;;;;;;19.10;60.00;;;15.14;100.00;95519.09;5012483;28;20678;-44
2023/09/11 03:59:16;;;;;;;;;;;19.20;60.10;;;15.12;100.00;95518.56;5011930;28;19917;-45
2023/09/11 04:01:41;;;;;;;;;;;19.10;60.00;;;15.11;100.00;95517.00;5004840;28;19916;-45
2023/09/11 04:04:07;;;;;;;;;;;19.10;60.10;;;15.11;100.00;95516.19;5011775;28;19909;-45
2023/09/11 04:06:35;;;;;;;;;;;19.10;60.20;;;15.09;100.00;95515.69;5002833;28;26611;-44
2023/09/11 04:09:00;;;;;;;;;;;19.10;60.30;;;15.08;100.00;95517.56;5010042;28;20351;-45
2023/09/11 04:11:26;;;;;;;;;;;19.10;60.30;;;15.08;100.00;95514.09;5012079;28;19909;-44
2023/09/11 04:13:52;;;;;;;;;;;19.10;60.40;;;15.08;100.00;95506.84;4980481;28;19960;-45
2023/09/11 04:16:19;;;;;;;;;;;19.10;60.40;;;15.08;100.00;95511.41;5009484;28;19963;-45
2023/09/11 04:18:45;;;;;;;;;;;19.10;60.50;;;15.08;100.00;95516.78;4994873;28;20039;-44
2023/09/11 04:21:10;;;;;;;;;;;19.10;60.50;;;15.08;100.00;95511.41;5012034;28;20007;-46
2023/09/11 04:23:36;;;;;;;;;;;19.10;60.60;;;15.03;100.00;95520.34;5007476;28;20360;-45
2023/09/11 04:26:02;;;;;;;;;;;19.10;60.60;;;15.06;100.00;95513.59;5002333;28;20315;-48
2023/09/11 04:28:28;;;;;;;;;;;19.10;60.70;;;15.01;100.00;95507.22;5011960;28;19952;-45
2023/09/11 04:30:53;;;;;;;;;;;19.00;60.60;;;15.00;100.00;95499.47;5001163;28;20000;-46
2023/09/11 04:33:20;;;;;;;;;;;19.00;60.60;;;14.99;100.00;95501.34;5009177;28;19909;-46
2023/09/11 04:35:46;;;;;;;;;;;19.00;60.60;;;14.99;100.00;95503.25;5009791;28;19927;-50
2023/09/11 04:38:12;;;;;;;;;;;19.00;60.70;;;15.03;100.00;95505.03;5010093;28;19909;-50
2023/09/11 04:40:38;;;;;;;;;;;19.00;60.80;;;15.07;100.00;95505.22;5012061;28;19912;-45
2023/09/11 04:43:05;;;;;;;;;;;19.00;60.90;;;15.07;100.00;95504.44;5004164;28;19913;-46
2023/09/11 04:45:31;;;;;;;;;;;19.00;60.90;;;15.06;100.00;95506.34;5011475;28;19959;-49
2023/09/11 04:47:56;;;;;;;;;;;19.10;61.00;;;15.06;100.00;95506.34;4987380;28;19918;-46
2023/09/11 04:50:22;;;;;;;;;;;19.00;61.00;;;15.06;100.00;95508.22;5002643;28;19936;-45
2023/09/11 04:52:48;;;;;;;;;;;19.00;61.00;;;15.04;100.00;95511.19;5011272;28;19916;-48
2023/09/11 04:55:13;;;;;;;;;;;19.00;61.00;;;15.07;100.00;95515.97;5007242;28;20364;-46
2023/09/11 04:57:40;;;;;;;;;;;19.00;61.10;;;15.08;100.00;95517.56;5011108;28;19920;-46
2023/09/11 05:00:10;;;;;;;;;;;19.10;61.20;;;15.08;100.00;95522.16;5006591;28;20372;-45
2023/09/11 05:02:40;;;;;;;;;;;19.00;61.10;;;15.06;100.00;95529.69;5009240;28;19916;-45
2023/09/11 05:05:06;;;;;;;;;;;19.10;61.20;;;15.11;100.00;95522.34;5010379;28;19944;-47
2023/09/11 05:07:32;;;;;;;;;;;19.10;61.30;;;15.13;100.00;95519.34;4999447;28;19908;-48
2023/09/11 05:09:59;;;;;;;;;;;19.10;61.30;;;15.10;100.00;95523.44;5010942;28;20264;-46
2023/09/11 05:12:26;;;;;;;;;;;19.10;61.30;;;15.10;100.00;95526.09;5008627;28;19909;-46
2023/09/11 05:14:51;;;;;;;;;;;19.10;61.30;;;15.12;100.00;95531.97;5010323;28;19947;-45
2023/09/11 05:17:18;;;;;;;;;;;19.10;61.30;;;15.14;100.00;95526.34;4999188;28;19963;-45
2023/09/11 05:19:43;;;;;;;;;;;19.10;61.30;;;15.14;100.00;95529.81;5003400;28;19909;-45
2023/09/11 05:22:09;;;;;;;;;;;19.20;61.40;;;15.17;100.00;95533.81;5010825;28;19909;-44
2023/09/11 05:24:35;;;;;;;;;;;19.20;61.40;;;15.16;100.00;95534.88;4997329;28;19959;-45
2023/09/11 05:27:01;;;;;;;;;;;19.20;61.40;;;15.14;100.00;95529.81;5009948;28;19913;-45
2023/09/11 05:29:26;;;;;;;;;;;19.20;61.40;;;15.18;100.00;95524.66;5010829;28;19909;-45
2023/09/11 05:31:52;;;;;;;;;;;19.30;61.40;;;15.19;100.00;95527.03;4990843;28;19913;-44
2023/09/11 05:34:18;;;;;;;;;;;19.30;61.40;;;15.23;100.00;95537.97;5003407;28;19923;-44
2023/09/11 05:36:43;;;;;;;;;;;19.30;61.50;;;15.24;100.00;95534.22;5001739;28;19963;-44
2023/09/11 05:39:09;;;;;;;;;;;19.40;61.60;;;15.31;100.00;95537.28;5010856;28;20394;-46
2023/09/11 05:41:35;;;;;;;;;;;19.40;61.60;;;15.35;100.00;95532.91;5010604;28;19971;-51
2023/09/11 05:44:02;;;;;;;;;;;19.40;61.60;;;15.37;100.00;95530.75;5002404;28;19920;-46
2023/09/11 05:46:29;;;;;;;;;;;19.50;61.60;;;15.39;100.00;95528.56;5005337;28;19909;-46
2023/09/11 05:48:55;;;;;;;;;;;19.50;61.60;;;15.44;100.00;95535.72;4983749;28;19916;-51
2023/09/11 05:51:21;;;;;;;;;;;19.60;61.60;;;15.53;100.00;95528.56;5009477;28;19909;-46
2023/09/11 05:53:46;;;;;;;;;;;19.70;61.60;;;15.64;100.00;95526.50;5007764;28;19948;-47
2023/09/11 05:56:12;;;;;;;;;;;19.80;61.80;;;15.79;100.00;95530.81;5008908;28;19916;-45
2023/09/11 05:58:38;;;;;;;;;;;19.90;61.80;;;15.95;100.00;95532.91;4998544;28;19915;-45
2023/09/11 06:01:05;;;;;;;;;;;20.10;61.90;;;16.10;100.00;95528.31;4995678;28;19915;-49
2023/09/11 06:03:31;;;;;;;;;;;20.20;62.10;;;16.19;100.00;95531.88;5010451;28;19936;-46
2023/09/11 06:05:59;;;;;;;;;;;20.40;61.80;;;16.28;100.00;95531.97;5005920;28;19963;-46
2023/09/11 06:08:25;;;;;;;;;;;20.50;61.70;;;16.37;100.00;95536.31;5002918;28;19999;-46
2023/09/11 06:10:52;;;;;;;;;;;20.60;61.50;;;16.50;100.00;95536.59;5010516;28;19909;-46
2023/09/11 06:13:18;;;;;;;;;;;20.80;61.40;;;16.71;100.00;95539.63;5006212;28;19917;-45
2023/09/11 06:15:43;;;;;;;;;;;21.10;61.20;;;16.94;100.00;95535.06;5009972;28;19916;-47
2023/09/11 06:18:09;;;;;;;;;;;21.30;61.10;;;17.13;100.00;95538.38;4990220;28;20311;-47
2023/09/11 06:20:36;;;;;;;;;;;21.60;60.90;;;17.33;100.00;95537.88;4997296;28;20007;-45
2023/09/11 06:23:02;;;;;;;;;;;21.80;60.60;;;17.59;100.00;95534.50;5010092;28;19952;-48
2023/09/11 06:25:28;;;;;;;;;;;22.10;60.40;;;17.90;100.00;95545.28;4998385;28;20003;-47
2023/09/11 06:27:53;;;;;;;;;;;22.50;60.00;;;18.27;100.00;95535.88;5013985;28;19995;-47
2023/09/11 06:30:19;;;;;;;;;;;22.90;60.00;;;18.56;100.00;95550.66;4995203;28;20387;-49
2023/09/11 06:32:45;;;;;;;;;;;23.30;59.80;;;18.92;100.00;95542.28;5007299;28;19924;-46
2023/09/11 06:35:11;;;;;;;;;;;23.70;59.60;;;19.14;100.00;95546.69;5013040;28;19912;-47
2023/09/11 06:37:37;;;;;;;;;;;24.20;59.30;;;19.45;100.00;95553.81;5006398;28;20039;-45
2023/09/11 06:40:07;;;;;;;;;;;24.60;58.90;;;19.81;100.00;95548.00;5013537;28;20331;-47
2023/09/11 06:42:34;;;;;;;;;;;25.00;58.60;;;20.19;100.00;95547.19;5006079;28;19910;-50
2023/09/11 06:45:00;;;;;;;;;;;25.40;58.40;;;20.62;100.00;95550.78;4995089;28;19919;-45
2023/09/11 06:47:26;;;;;;;;;;;25.90;58.20;;;21.07;95.68;95555.53;4993859;28;20283;-46
2023/09/11 06:49:51;;;;;;;;;;;26.30;57.90;;;21.45;92.92;95547.22;5002720;28;19909;-45
2023/09/11 06:52:20;;;;;;;;;;;26.80;57.60;;;21.83;86.42;95546.94;5013539;28;19912;-47
2023/09/11 06:54:45;;;;;;;;;;;27.20;57.20;;;22.25;84.29;95543.25;5010961;28;20364;-45
2023/09/11 06:57:11;;;;;;;;;;;27.60;56.80;;;22.61;81.44;95548.66;5013514;28;20042;-45
2023/09/11 06:59:37;;;;;;;;;;;28.10;56.40;;;22.94;80.35;95538.75;5013261;28;19967;-50
2023/09/11 07:02:03;;;;;;;;;;;28.40;55.90;;;23.35;77.67;95544.91;5007262;28;19909;-47
2023/09/11 07:04:31;;;;;;;;;;;28.80;55.50;;;23.69;74.48;95546.22;5012354;28;19913;-45
2023/09/11 07:06:56;;;;;;;;;;;29.20;55.10;;;23.98;72.91;95542.31;5002953;28;19909;-46
2023/09/11 07:09:26;;;;;;;;;;;29.60;54.80;;;24.32;71.77;95550.88;5013431;28;20429;-47
2023/09/11 07:11:56;;;;;;;;;;;29.90;54.30;;;24.56;69.72;95550.69;5011089;28;19998;-47
2023/09/11 07:14:23;;;;;;;;;;;30.20;53.90;;;24.85;68.16;95543.94;5012476;28;19909;-47
2023/09/11 07:16:49;;;;;;;;;;;30.50;53.50;;;25.12;66.63;95544.09;5004636;28;19910;-48
2023/09/11 07:19:16;;;;;;;;;;;30.80;53.10;;;25.30;65.31;95547.19;5001319;28;20273;-47
2023/09/11 07:21:44;;;;;;;;;;;31.20;52.80;;;25.51;64.67;95547.59;5012308;28;19909;-46
2023/09/11 07:24:10;;;;;;;;;;;31.40;52.30;;;25.83;63.07;95540.03;5003257;28;19964;-46
2023/09/11 07:26:36;;;;;;;;;;;31.70;52.00;;;26.03;63.38;95548.91;5008920;28;21041;-50
2023/09/11 07:29:03;;;;;;;;;;;32.00;51.60;;;26.27;62.90;95544.25;5012966;28;20264;-47
2023/09/11 07:31:31;;;;;;;;;;;32.30;51.10;;;26.63;61.34;95545.56;4999361;28;20004;-46
2023/09/11 07:33:58;;;;;;;;;;;32.60;50.70;;;26.92;58.16;95548.69;4995132;28;20007;-49
2023/09/11 07:36:26;;;;;;;;;;;32.90;50.20;;;27.29;56.56;95542.53;5007761;28;19913;-46
2023/09/11 07:38:52;;;;;;;;;;;33.00;49.60;;;27.55;56.33;95553.38;5012973;28;20264;-46
2023/09/11 07:41:19;;;;;;;;;;;33.20;49.30;;;27.75;55.31;95548.50;5012652;28;19959;-46
2023/09/11 07:43:49;;;;;;;;;;;33.40;49.00;;;27.92;54.41;95541.63;5004148;28;19952;-46
2023/09/11 07:46:21;;;;;;;;;;;33.70;48.60;;;28.17;52.69;95550.06;5010427;28;19917;-46
2023/09/11 07:48:48;;;;;;;;;;;33.80;48.10;;;28.25;52.67;95548.97;4986009;28;19916;-46
2023/09/11 07:51:14;;;;;;;;;;;34.00;47.80;;;28.26;52.36;95544.28;5011009;28;19915;-46
2023/09/11 07:53:40;;;;;;;;;;;34.10;47.50;;;28.33;51.03;95542.38;5010969;28;20358;-49
2023/09/11 07:56:08;;;;;;;;;;;34.30;47.10;;;28.31;51.05;95550.19;5010473;28;19912;-51
2023/09/11 07:58:35;;;;;;;;;;;34.30;46.70;;;28.56;50.46;95552.34;5012148;28;19963;-51
2023/09/11 08:01:01;;;;;;;;;;;34.50;46.40;;;28.76;48.99;95548.16;5004807;28;20000;-49
2023/09/11 08:03:27;;;;;;;;;;;34.50;46.10;;;28.91;49.74;95551.75;5012070;28;19909;-46
2023/09/11 08:05:53;;;;;;;;;;;34.70;46.00;;;29.03;50.42;95562.44;5008631;28;19913;-48
2023/09/11 08:08:19;;;;;;;;;;;34.90;45.80;;;29.20;49.81;95552.69;5004419;28;19932;-49
2023/09/11 08:10:45;;;;;;;;;;;35.10;45.40;;;29.37;49.22;95547.69;5011860;28;19917;-47
2023/09/11 08:13:11;;;;;;;;;;;35.30;45.20;;;29.59;48.79;95549.31;5010007;28;19935;-47
2023/09/11 08:15:36;;;;;;;;;;;35.50;44.90;;;29.71;48.37;95550.94;5011351;28;19913;-52
2023/09/11 08:18:02;;;;;;;;;;;35.70;44.60;;;29.73;48.43;95552.09;4990181;28;19913;-46
2023/09/11 08:20:28;;;;;;;;;;;35.90;44.40;;;29.71;49.24;95548.22;5010468;28;20004;-47
2023/09/11 08:22:54;;;;;;;;;;;36.00;44.00;;;29.91;48.19;95552.13;5012177;28;19909;-46
2023/09/11 08:25:20;;;;;;;;;;;36.20;43.80;;;30.14;47.01;95545.47;4997923;28;19943;-49
2023/09/11 08:27:46;;;;;;;;;;;36.40;43.50;;;30.19;47.68;95550.59;5011828;28;20019;-47
2023/09/11 08:30:13;;;;;;;;;;;36.50;43.30;;;30.19;47.91;95551.41;5006919;28;19941;-47
2023/09/11 08:32:39;;;;;;;;;;;36.60;43.00;;;30.34;48.10;95549.44;5004626;28;19954;-46
2023/09/11 08:35:05;;;;;;;;;;;36.70;42.70;;;30.47;47.19;95547.09;5011122;28;19909;-46
2023/09/11 08:37:31;;;;;;;;;;;36.80;42.40;;;30.66;46.82;95537.63;5008503;28;19948;-47
2023/09/11 08:39:56;;;;;;;;;;;37.00;42.30;;;30.80;46.63;95548.59;5011393;28;19909;-48
2023/09/11 08:42:23;;;;;;;;;;;37.10;42.10;;;31.03;45.45;95545.41;5004788;28;19916;-49
2023/09/11 08:44:49;;;;;;;;;;;37.30;42.00;;;31.07;45.38;95540.69;5009835;28;19912;-46
2023/09/11 08:47:19;;;;;;;;;;;37.40;41.80;;;31.42;44.68;95551.97;4993581;28;19920;-50
2023/09/11 08:49:52;;;;;;;;;;;37.60;41.60;;;31.64;43.86;95547.13;4971261;28;19923;-48
2023/09/11 08:52:19;;;;;;;;;;;37.80;41.30;;;31.78;43.60;95547.84;5011178;28;19916;-48
2023/09/11 08:54:53;;;;;;;;;;;38.00;41.00;;;32.17;42.53;95548.78;5008415;28;19921;-48
2023/09/11 08:57:24;;;;;;;;;;;38.20;40.70;;;32.46;43.43;95535.56;4994126;28;19962;-46
2023/09/11 08:59:56;;;;;;;;;;;38.40;40.50;;;32.67;41.30;95554.66;4992169;28;20372;-47
2023/09/11 09:02:25;;;;;;;;;;;38.60;40.30;;;32.60;41.32;95540.94;5008081;28;19909;-46
2023/09/11 09:04:55;;;;;;;;;;;38.70;39.90;;;32.79;40.96;95547.84;4992971;28;19920;-49
2023/09/11 09:07:23;;;;;;;;;;;38.90;40.20;;;33.12;41.49;95543.53;5000906;28;19909;-46
2023/09/11 09:09:50;;;;;;;;;;;39.10;39.40;;;33.13;40.67;95536.06;5010822;28;20060;-50
2023/09/11 09:12:16;;;;;;;;;;;39.20;39.20;;;32.74;40.37;95530.97;5006013;28;19936;-48
2023/09/11 09:14:42;;;;;;;;;;;39.40;38.90;;;32.83;40.45;95536.78;4984411;28;19913;-49
2023/09/11 09:17:08;;;;;;;;;;;39.40;38.50;;;32.97;40.71;95528.38;5000262;28;19909;-47
2023/09/11 09:19:34;;;;;;;;;;;39.50;38.30;;;32.94;40.31;95523.66;5002033;28;19967;-47
2023/09/11 09:22:03;;;;;;;;;;;39.60;38.00;;;33.15;39.54;95533.66;5010725;28;19909;-47
2023/09/11 09:24:28;;;;;;;;;;;39.50;37.70;;;33.29;39.31;95527.22;4998029;28;19913;-48
2023/09/11 09:27:06;;;;;;;;;;;39.60;37.60;;;33.66;39.47;95531.06;4993326;28;19916;-47
2023/09/11 09:29:38;;;;;;;;;;;39.70;37.60;;;33.84;37.98;95526.84;5010589;28;19909;-47
2023/09/11 09:32:07;;;;;;;;;;;40.00;37.60;;;33.95;37.07;95517.63;4998911;28;19916;-48
2023/09/11 09:34:35;;;;;;;;;;;40.20;38.00;;;34.01;37.52;95515.97;5010038;28;19936;-46
2023/09/11 09:37:01;;;;;;;;;;;40.40;37.10;;;34.21;37.69;95511.31;5008284;28;19916;-46
2023/09/11 09:39:29;;;;;;;;;;;40.70;36.90;;;34.48;37.66;95518.75;5010745;28;19915;-46
2023/09/11 09:42:07;;;;;;;;;;;40.90;36.70;;;34.91;36.95;95504.97;4991712;28;19932;-48
2023/09/11 09:44:40;;;;;;;;;;;41.10;36.30;;;35.21;36.35;95517.81;5006956;28;19913;-46
2023/09/11 09:47:15;;;;;;;;;;;41.30;36.10;;;35.45;35.90;95510.19;4995550;28;19913;-46
2023/09/11 09:49:53;;;;;;;;;;;41.60;35.90;;;35.59;35.58;95514.66;4998164;28;20332;-46
2023/09/11 09:52:25;;;;;;;;;;;41.70;35.60;;;35.44;36.00;95508.63;5010605;28;20326;-46
2023/09/11 09:55:03;;;;;;;;;;;41.90;35.30;;;35.46;34.88;95500.66;5000819;28;19948;-48
2023/09/11 09:57:29;;;;;;;;;;;42.00;35.10;;;35.23;35.36;95504.31;5007625;28;19909;-46
2023/09/11 09:59:58;;;;;;;;;;;42.20;34.90;;;35.61;34.42;95498.41;5009879;28;19909;-48
2023/09/11 10:02:30;;;;;;;;;;;42.30;34.60;;;35.68;34.45;95494.69;5012012;28;19912;-46
2023/09/11 10:05:01;;;;;;;;;;;42.40;34.40;;;35.79;35.02;95495.22;5007880;28;19917;-48
2023/09/11 10:07:45;;;;;;;;;;;42.50;34.20;;;35.81;33.57;95498.31;5004856;28;20371;-48
2023/09/11 10:10:21;;;;;;;;;;;42.60;33.90;;;35.97;33.29;95492.00;5005607;28;20257;-51
2023/09/11 10:13:04;;;;;;;;;;;42.60;33.80;;;36.29;33.38;95490.47;5010524;28;20011;-51
2023/09/11 10:15:35;;;;;;;;;;;42.80;33.70;;;36.49;33.47;95490.38;5005819;28;19913;-48
2023/09/11 10:18:03;;;;;;;;;;;42.90;34.10;;;36.69;31.86;95493.03;4998044;28;19960;-47
2023/09/11 10:20:29;;;;;;;;;;;43.10;33.30;;;36.94;31.95;95486.78;4997045;28;19956;-50
2023/09/11 10:23:03;;;;;;;;;;;43.20;33.10;;;36.86;31.48;95477.91;5014685;28;20354;-49
2023/09/11 10:25:36;;;;;;;;;;;43.40;32.80;;;36.76;31.53;95477.00;4991540;28;19952;-49
2023/09/11 10:28:22;;;;;;;;;;;43.60;32.60;;;36.74;31.23;95470.31;5006120;28;19909;-52
2023/09/11 10:31:19;;;;;;;;;;;43.80;32.40;;;36.43;31.19;95469.94;4984390;28;19939;-47
2023/09/11 10:33:51;;;;;;;;;;;43.90;32.10;;;36.49;31.31;95466.19;4999478;28;20421;-55
2023/09/11 10:36:22;;;;;;;;;;;44.00;31.90;;;36.61;30.78;95461.16;5009051;28;20356;-50
2023/09/11 10:38:54;;;;;;;;;;;44.00;31.60;;;36.59;31.58;95458.81;4997140;28;19955;-49
2023/09/11 10:41:20;;;;;;;;;;;44.00;32.20;;;36.77;31.36;95458.34;4997447;28;19916;-49
2023/09/11 10:43:47;;;;;;;;;;;44.00;31.40;;;36.71;31.93;95457.31;5004589;28;19909;-50
2023/09/11 10:46:22;;;;;;;;;;;44.10;31.30;;;36.70;32.29;95455.75;4979668;28;20269;-49
2023/09/11 10:48:52;;;;;;;;;;;44.20;31.10;;;36.97;31.51;95452.63;4983250;28;19917;-48
2023/09/11 10:51:18;;;;;;;;;;;44.30;31.00;;;36.80;31.15;95452.69;5010138;28;20015;-51
2023/09/11 10:53:48;;;;;;;;;;;44.40;30.80;;;36.61;31.96;95452.84;5013857;28;19924;-49
2023/09/11 10:56:15;;;;;;;;;;;44.50;30.70;;;36.81;32.17;95453.47;5009989;28;19909;-48
2023/09/11 10:58:42;;;;;;;;;;;44.60;30.50;;;37.30;31.76;95450.50;5014096;28;19962;-48
2023/09/11 11:01:12;;;;;;;;;;;44.60;30.60;;;37.51;30.79;95437.97;4996716;28;19963;-48
2023/09/11 11:03:38;;;;;;;;;;;44.80;30.50;;;37.19;30.92;95433.38;4997310;28;19996;-49
2023/09/11 11:06:08;;;;;;;;;;;44.80;30.20;;;37.07;31.53;95443.22;5010719;28;20008;-50
2023/09/11 11:08:36;;;;;;;;;;;44.90;30.10;;;36.55;31.76;95439.50;5004714;28;19959;-49
2023/09/11 11:11:03;;;;;;;;;;;45.00;30.00;;;36.97;31.51;95433.19;5011240;28;20346;-48
2023/09/11 11:13:30;;;;;;;;;;;45.00;29.90;;;37.33;30.24;95435.72;5001754;28;20345;-49
2023/09/11 11:16:31;;;;;;;;;;;45.00;29.80;;;37.58;29.86;95431.44;5013749;28;19959;-49
2023/09/11 11:18:58;;;;;;;;;;;45.10;29.60;;;37.47;30.00;95421.41;4904560;29;19911;-49
2023/09/11 11:21:23;;;;;;;;;;;45.20;29.60;;;37.51;29.25;95421.28;4993052;28;19999;-50